Glasgow, Montana
Current Conditions -  °F | °C
As of 5:53 PM on Friday 24 Oct 2014 (Local Time) from KGGW Reporting Station
Clear Clear  
Wind Chill: 54°   Ceiling: Unl
Heat Index: 54°   Visibility: 10mi
Dew Point: 27°   Wind: 12mph
Humidity: 35%   Direction: 300°WNW
Pressure: 30.02"   Gusts: NA
Location:  48.2°N, 106.64°W
Report Text: KGGW 242353Z AUTO 30010KT 10SM CLR 12/M03 A3002 RMK AO2 SLP171 T01221028 10156 20122 53015
Loading
Personal Weather Stations






























Interactive Weather Map New forecast layout! Learn more

10-Day Weather Forecast

Advertisements
Track Severe Weather on mobile